Time;durP1;ratioP1;P1;durP2;ratioP2;P2;SDS_P1;SDS_P2;PMS_P1;PMS_P2;Temp;Humidity;BMP_temperature;BMP_pressure;BME280_temperature;BME280_humidity;BME280_pressure;Samples;Min_cycle;Max_cycle;Signal;HPM_P1;HPM_P2
2022/05/14 00:01:25;;;;;;;30.15;6.15;;;12.70;99.90;;;;;;5082938;28;38105;-78
2022/05/14 00:03:51;;;;;;;28.73;6.10;;;12.70;99.90;;;;;;5086620;27;36925;-78
2022/05/14 00:06:21;;;;;;;16.63;5.57;;;12.70;99.90;;;;;;5084835;27;39787;-78
2022/05/14 00:08:48;;;;;;;24.13;6.30;;;12.70;99.90;;;;;;5102560;27;37983;-78
2022/05/14 00:14:03;;;;;;;26.10;5.88;;;12.70;99.90;;;;;;5073839;28;38858;-77
2022/05/14 00:16:31;;;;;;;28.48;6.70;;;12.60;99.90;;;;;;5077899;28;47321;-78
2022/05/14 00:18:57;;;;;;;26.35;6.18;;;12.60;99.90;;;;;;5078943;28;39142;-78
2022/05/14 00:21:23;;;;;;;26.90;6.80;;;12.60;99.90;;;;;;5077693;28;38773;-78
2022/05/14 00:23:50;;;;;;;26.25;7.00;;;12.60;99.90;;;;;;5074942;28;38407;-78
2022/05/14 00:26:17;;;;;;;22.13;5.68;;;12.60;99.90;;;;;;5067628;28;38906;-78
2022/05/14 00:28:44;;;;;;;24.20;6.95;;;12.60;99.90;;;;;;5072790;27;38493;-78
2022/05/14 00:31:10;;;;;;;23.77;7.60;;;12.60;99.90;;;;;;5090152;28;37352;-78
2022/05/14 00:33:36;;;;;;;30.45;8.55;;;12.60;99.90;;;;;;5070964;28;37149;-78
2022/05/14 00:36:02;;;;;;;26.33;7.30;;;12.60;99.90;;;;;;5071827;28;40707;-78
2022/05/14 00:38:29;;;;;;;22.02;7.45;;;12.50;99.90;;;;;;5073307;28;37867;-78
2022/05/14 00:41:04;;;;;;;28.42;7.78;;;12.50;99.90;;;;;;5076750;28;37142;-78
2022/05/14 00:43:31;;;;;;;28.58;7.88;;;12.50;99.90;;;;;;5072792;28;48888;-78
2022/05/14 00:46:10;;;;;;;26.80;8.13;;;12.50;99.90;;;;;;5081509;28;38184;-78
2022/05/14 00:48:39;;;;;;;31.17;7.63;;;12.50;99.90;;;;;;5077489;28;49031;-78
2022/05/14 00:51:07;;;;;;;30.40;8.80;;;12.40;99.90;;;;;;5072287;27;38696;-78
2022/05/14 00:53:37;;;;;;;28.25;8.07;;;12.40;99.90;;;;;;5079158;28;38096;-76
2022/05/14 00:56:06;;;;;;;22.65;7.55;;;12.40;99.90;;;;;;5088767;27;39853;-79
2022/05/14 00:58:57;;;;;;;30.88;9.15;;;12.40;99.90;;;;;;5081739;27;39113;-76
2022/05/14 01:01:23;;;;;;;26.42;8.70;;;12.30;99.90;;;;;;5077568;27;37763;-76
2022/05/14 01:03:49;;;;;;;27.70;8.55;;;12.30;99.90;;;;;;5085289;28;37838;-76
2022/05/14 01:06:19;;;;;;;26.73;8.85;;;12.30;99.90;;;;;;5080674;28;40704;-76
2022/05/14 01:08:47;;;;;;;30.25;8.73;;;12.30;99.90;;;;;;5080562;27;39315;-76
2022/05/14 01:11:15;;;;;;;34.70;9.45;;;12.20;99.90;;;;;;5078180;28;38354;-76
2022/05/14 01:13:41;;;;;;;27.60;8.70;;;12.20;99.90;;;;;;5080376;28;38705;-77
2022/05/14 01:16:08;;;;;;;36.20;10.30;;;12.20;99.90;;;;;;5080825;28;40404;-76
2022/05/14 01:18:36;;;;;;;30.23;8.93;;;12.20;99.90;;;;;;5076973;28;37469;-76
2022/05/14 01:21:30;;;;;;;29.88;8.55;;;12.20;99.90;;;;;;5083803;28;37089;-76
2022/05/14 01:26:58;;;;;;;25.70;9.60;;;12.10;99.90;;;;;;5052597;27;48856;-79
2022/05/14 01:29:25;;;;;;;28.98;9.50;;;12.10;99.90;;;;;;5055700;27;39413;-77
2022/05/14 01:31:54;;;;;;;29.98;10.63;;;12.10;99.90;;;;;;5083829;28;37925;-77
2022/05/14 01:34:25;;;;;;;37.03;10.15;;;12.10;99.90;;;;;;5080808;28;38367;-77
2022/05/14 01:36:52;;;;;;;28.58;10.35;;;12.00;99.90;;;;;;5081636;28;39835;-77
2022/05/14 01:39:19;;;;;;;39.17;11.77;;;12.00;99.90;;;;;;5079319;28;38234;-76
2022/05/14 01:41:45;;;;;;;27.95;11.60;;;12.00;99.90;;;;;;5083860;28;38844;-76
2022/05/14 01:44:11;;;;;;;27.08;11.23;;;12.00;99.90;;;;;;5080661;28;38170;-77
2022/05/14 01:46:37;;;;;;;30.77;11.75;;;11.90;99.90;;;;;;5071738;28;39301;-77
2022/05/14 01:49:04;;;;;;;32.90;11.63;;;11.90;99.90;;;;;;5058096;28;40124;-77
2022/05/14 01:51:30;;;;;;;36.88;12.10;;;11.90;99.90;;;;;;5052313;28;39075;-79
2022/05/14 01:53:57;;;;;;;29.38;10.73;;;11.90;99.90;;;;;;5056454;28;37118;-76
2022/05/14 01:56:23;;;;;;;39.75;12.05;;;11.90;99.90;;;;;;5050709;28;38861;-76
2022/05/14 01:58:49;;;;;;;40.67;13.32;;;11.80;99.90;;;;;;5074120;28;39389;-76
2022/05/14 02:01:20;;;;;;;32.05;12.30;;;11.80;99.90;;;;;;5076759;28;38675;-77
2022/05/14 02:03:53;;;;;;;31.70;11.95;;;11.80;99.90;;;;;;5085772;28;38871;-76
2022/05/14 02:06:20;;;;;;;34.33;12.95;;;11.80;99.90;;;;;;5063537;28;38919;-78
2022/05/14 02:08:47;;;;;;;30.48;12.63;;;11.80;99.90;;;;;;5102753;28;37213;-76
2022/05/14 02:11:14;;;;;;;35.13;14.88;;;11.80;99.90;;;;;;5090620;28;37793;-76
2022/05/14 02:13:41;;;;;;;37.08;15.88;;;11.60;99.90;;;;;;5100579;28;37292;-77
2022/05/14 02:16:08;;;;;;;33.47;15.65;;;11.70;99.90;;;;;;5091662;28;39328;-77
2022/05/14 02:18:35;;;;;;;35.15;14.85;;;11.60;99.90;;;;;;5057988;28;38864;-77
2022/05/14 02:21:03;;;;;;;33.13;14.50;;;11.60;99.90;;;;;;5055641;28;34834;-76
2022/05/14 02:23:29;;;;;;;37.15;15.77;;;11.60;99.90;;;;;;5052923;28;37098;-76
2022/05/14 02:25:56;;;;;;;33.15;14.50;;;11.60;99.90;;;;;;5059674;28;38499;-77
2022/05/14 02:28:22;;;;;;;42.63;15.68;;;11.60;99.90;;;;;;5070263;28;38372;-76
2022/05/14 02:30:48;;;;;;;33.17;17.15;;;11.60;99.90;;;;;;5091494;27;37028;-76
2022/05/14 02:33:14;;;;;;;36.53;16.88;;;11.50;99.90;;;;;;5093159;28;37177;-76
2022/05/14 02:35:41;;;;;;;34.88;16.25;;;11.50;99.90;;;;;;5063009;28;39798;-76
2022/05/14 02:38:08;;;;;;;35.67;15.48;;;11.50;99.90;;;;;;5085890;27;38969;-77
2022/05/14 02:40:35;;;;;;;29.90;16.02;;;11.50;99.90;;;;;;5075502;28;39891;-77
2022/05/14 02:43:01;;;;;;;39.20;17.60;;;11.50;99.90;;;;;;5078264;28;37829;-76
2022/05/14 02:45:27;;;;;;;35.60;15.95;;;11.50;99.90;;;;;;5085109;27;45470;-76
2022/05/14 02:47:53;;;;;;;40.58;16.70;;;11.50;99.90;;;;;;5056532;28;39475;-76
2022/05/14 02:50:19;;;;;;;42.75;18.02;;;11.50;99.90;;;;;;5074993;28;38458;-76
2022/05/14 02:52:46;;;;;;;37.03;17.17;;;11.50;99.90;;;;;;5090210;28;38917;-76
2022/05/14 02:55:12;;;;;;;41.28;17.25;;;11.50;99.90;;;;;;5066112;28;39902;-76
2022/05/14 02:57:38;;;;;;;41.05;16.05;;;11.50;99.90;;;;;;5075676;27;38464;-76
2022/05/14 03:00:08;;;;;;;37.72;14.88;;;11.50;99.90;;;;;;5061621;27;37974;-77
2022/05/14 03:02:35;;;;;;;32.53;15.60;;;11.50;99.90;;;;;;5062400;28;38456;-77
2022/05/14 03:05:02;;;;;;;32.17;14.82;;;11.50;99.90;;;;;;5082707;28;40429;-77
2022/05/14 03:07:28;;;;;;;39.45;16.98;;;11.50;99.90;;;;;;5086337;28;47777;-76
2022/05/14 03:09:54;;;;;;;30.00;13.43;;;11.50;99.90;;;;;;5086151;28;38298;-77
2022/05/14 03:12:22;;;;;;;39.60;16.88;;;11.50;99.90;;;;;;5065216;28;37842;-76
2022/05/14 03:14:49;;;;;;;33.50;15.50;;;11.50;99.90;;;;;;5081707;28;39160;-76
2022/05/14 03:17:16;;;;;;;30.70;14.52;;;11.50;99.90;;;;;;5088893;28;37098;-77
2022/05/14 03:19:42;;;;;;;36.67;15.43;;;11.50;99.90;;;;;;5084358;28;38707;-76
2022/05/14 03:22:09;;;;;;;42.67;16.30;;;11.40;99.90;;;;;;5086914;28;39268;-76
2022/05/14 03:24:38;;;;;;;28.63;14.75;;;11.40;99.90;;;;;;5083427;27;40225;-76
2022/05/14 03:27:08;;;;;;;38.30;14.93;;;11.40;99.90;;;;;;5092267;28;37409;-77
2022/05/14 03:29:35;;;;;;;40.40;16.00;;;11.40;99.90;;;;;;5089685;28;39450;-77
2022/05/14 03:32:02;;;;;;;42.75;15.55;;;11.40;99.90;;;;;;5089259;28;36149;-77
2022/05/14 03:34:28;;;;;;;35.50;16.08;;;11.30;99.90;;;;;;5092483;27;38651;-77
2022/05/14 03:36:54;;;;;;;38.72;14.43;;;11.30;99.90;;;;;;5087576;28;37439;-77
2022/05/14 03:39:20;;;;;;;35.03;15.50;;;11.30;99.90;;;;;;5087727;27;37363;-77
2022/05/14 03:41:46;;;;;;;37.65;15.70;;;11.30;99.90;;;;;;5091761;28;35981;-77
2022/05/14 03:44:12;;;;;;;35.13;15.43;;;11.30;99.90;;;;;;5096720;27;39293;-77
2022/05/14 03:46:38;;;;;;;41.03;16.60;;;11.30;99.90;;;;;;5095968;27;38450;-76
2022/05/14 03:49:05;;;;;;;42.38;16.90;;;11.30;99.90;;;;;;5089203;28;40521;-76
2022/05/14 03:51:31;;;;;;;41.95;17.30;;;11.30;99.90;;;;;;5083527;28;37431;-77
2022/05/14 03:53:58;;;;;;;44.47;17.65;;;11.30;99.90;;;;;;5084482;28;37622;-77
2022/05/14 03:56:25;;;;;;;45.35;15.82;;;11.30;99.90;;;;;;5078537;28;38832;-77
2022/05/14 03:58:51;;;;;;;41.28;17.42;;;11.30;99.90;;;;;;5077601;28;38437;-77
2022/05/14 04:01:18;;;;;;;38.42;14.85;;;11.30;99.90;;;;;;5073754;28;37620;-77
2022/05/14 04:03:45;;;;;;;36.10;15.45;;;11.30;99.90;;;;;;5074481;28;36129;-76
2022/05/14 04:06:13;;;;;;;41.33;18.23;;;11.30;99.90;;;;;;5080768;28;37269;-77
2022/05/14 04:08:40;;;;;;;43.38;16.27;;;11.30;99.90;;;;;;5075986;28;36418;-77
2022/05/14 04:11:07;;;;;;;39.13;16.65;;;11.30;99.90;;;;;;5082708;28;36190;-77
2022/05/14 04:13:34;;;;;;;39.45;16.05;;;11.30;99.90;;;;;;5078657;27;39303;-77
2022/05/14 04:16:00;;;;;;;38.88;16.65;;;11.30;99.90;;;;;;5074459;28;38561;-77
2022/05/14 04:18:29;;;;;;;35.53;14.50;;;11.30;99.90;;;;;;5084277;28;46913;-77
2022/05/14 04:20:58;;;;;;;41.92;16.48;;;11.30;99.90;;;;;;5081028;28;36388;-77
2022/05/14 04:23:28;;;;;;;44.60;17.00;;;11.30;99.90;;;;;;5075184;28;39048;-77
2022/05/14 04:25:55;;;;;;;43.50;17.30;;;11.30;99.90;;;;;;5087994;27;38524;-77
2022/05/14 04:28:24;;;;;;;36.45;16.70;;;11.30;99.90;;;;;;5082169;28;37419;-77
2022/05/14 04:30:51;;;;;;;35.53;15.88;;;11.30;99.90;;;;;;5088167;28;37768;-77
2022/05/14 04:33:19;;;;;;;32.67;15.13;;;11.40;99.90;;;;;;5081745;28;39367;-78
2022/05/14 04:35:45;;;;;;;38.10;16.40;;;11.40;99.90;;;;;;5077855;28;37535;-78
2022/05/14 04:38:11;;;;;;;36.90;17.67;;;11.50;99.90;;;;;;5086345;28;37409;-77
2022/05/14 04:40:38;;;;;;;30.98;15.48;;;11.50;99.90;;;;;;5080416;28;37584;-78
2022/05/14 04:43:09;;;;;;;41.95;16.38;;;11.50;99.90;;;;;;5084331;28;40170;-77
2022/05/14 04:45:36;;;;;;;32.80;14.52;;;11.60;99.90;;;;;;5087985;28;38639;-79
2022/05/14 04:48:05;;;;;;;36.72;15.02;;;11.70;99.90;;;;;;5080802;28;20044;-77
2022/05/14 04:50:31;;;;;;;43.22;17.02;;;11.80;99.90;;;;;;5086910;28;35870;-77
2022/05/14 04:52:57;;;;;;;37.13;16.70;;;11.90;99.90;;;;;;5087613;28;38670;-77
2022/05/14 04:55:24;;;;;;;36.90;17.10;;;11.90;99.90;;;;;;5088158;28;38537;-77
2022/05/14 04:57:50;;;;;;;30.23;14.32;;;12.00;99.90;;;;;;5086726;28;38457;-80
2022/05/14 05:00:16;;;;;;;36.20;15.85;;;12.10;99.90;;;;;;5085992;28;37421;-79
2022/05/14 05:05:31;;;;;;;35.42;14.25;;;12.20;99.90;;;;;;5085800;28;50402;-80
2022/05/14 05:07:58;;;;;;;33.13;14.18;;;12.20;99.90;;;;;;5080782;28;39002;-77
2022/05/14 05:10:24;;;;;;;33.03;13.85;;;12.30;99.90;;;;;;5079331;28;38237;-79
2022/05/14 05:12:50;;;;;;;43.47;17.10;;;12.40;99.90;;;;;;5075674;28;37788;-79
2022/05/14 05:15:16;;;;;;;28.95;13.55;;;12.40;99.90;;;;;;5077813;28;38230;-79
2022/05/14 05:17:42;;;;;;;35.15;14.68;;;12.40;99.90;;;;;;5079195;28;37000;-79
2022/05/14 05:20:09;;;;;;;32.13;14.65;;;12.50;99.90;;;;;;5077611;28;38411;-80
2022/05/14 05:22:37;;;;;;;34.85;12.85;;;12.60;99.90;;;;;;5078217;28;38283;-79
2022/05/14 05:25:05;;;;;;;34.58;13.32;;;12.60;99.90;;;;;;5074353;28;37431;-79
2022/05/14 05:27:32;;;;;;;28.52;14.00;;;12.80;99.90;;;;;;5078077;28;37974;-79
2022/05/14 05:29:58;;;;;;;32.67;13.88;;;13.00;99.90;;;;;;5090336;28;36413;-79
2022/05/14 05:32:24;;;;;;;30.85;11.25;;;13.20;99.90;;;;;;5074496;28;37929;-77
2022/05/14 05:34:51;;;;;;;22.08;10.77;;;13.30;99.90;;;;;;5085166;27;38511;-79
2022/05/14 05:37:17;;;;;;;30.50;10.57;;;13.30;99.90;;;;;;5076128;28;38082;-77
2022/05/14 05:39:43;;;;;;;31.20;10.98;;;13.50;99.90;;;;;;5067055;28;38757;-77
2022/05/14 05:42:09;;;;;;;27.95;10.75;;;13.70;99.90;;;;;;5069659;28;40931;-79
2022/05/14 05:44:35;;;;;;;25.23;10.50;;;13.90;99.90;;;;;;5060025;28;36690;-77
2022/05/14 05:47:06;;;;;;;25.17;9.85;;;13.90;99.90;;;;;;5060455;28;38200;-77
2022/05/14 05:49:38;;;;;;;23.08;9.13;;;14.10;99.90;;;;;;5069866;28;37457;-77
2022/05/14 05:52:04;;;;;;;21.17;8.00;;;14.00;99.90;;;;;;5076438;28;37283;-78
2022/05/14 05:57:15;;;;;;;22.50;7.95;;;14.20;99.90;;;;;;5079005;28;39092;-77
2022/05/14 05:59:41;;;;;;;18.13;7.20;;;14.30;99.90;;;;;;5079339;28;37481;-78
2022/05/14 06:02:08;;;;;;;17.80;6.28;;;14.40;99.90;;;;;;5076336;27;38669;-78
2022/05/14 06:04:35;;;;;;;18.55;6.80;;;14.60;99.90;;;;;;5079885;27;38539;-78
2022/05/14 06:07:02;;;;;;;21.98;6.80;;;14.60;99.90;;;;;;5065878;28;37218;-78
2022/05/14 06:09:29;;;;;;;20.88;5.72;;;14.70;99.90;;;;;;5067523;28;36892;-78
2022/05/14 06:11:58;;;;;;;21.13;6.10;;;14.90;99.90;;;;;;5068451;28;37569;-78
2022/05/14 06:14:25;;;;;;;19.17;5.70;;;14.90;99.90;;;;;;5066182;28;38884;-79
2022/05/14 06:16:52;;;;;;;21.80;7.50;;;15.10;99.90;;;;;;5053630;28;38129;-80
2022/05/14 06:19:18;;;;;;;15.52;5.85;;;15.20;99.90;;;;;;5066086;28;37825;-79
2022/05/14 06:21:44;;;;;;;20.65;6.57;;;15.40;99.90;;;;;;5056201;28;37721;-79
2022/05/14 06:24:11;;;;;;;15.55;5.05;;;15.60;99.90;;;;;;5062373;28;35744;-78
2022/05/14 06:26:37;;;;;;;18.15;5.47;;;15.70;99.90;;;;;;5081632;28;39143;-78
2022/05/14 06:29:07;;;;;;;18.80;5.30;;;15.80;99.90;;;;;;5074238;28;38195;-78
2022/05/14 06:31:34;;;;;;;17.80;5.20;;;16.10;99.90;;;;;;5070130;28;39802;-77
2022/05/14 06:34:00;;;;;;;15.55;5.57;;;16.30;99.90;;;;;;5064232;28;38582;-78
2022/05/14 06:36:27;;;;;;;14.38;5.07;;;16.40;99.90;;;;;;5076267;28;37350;-78
2022/05/14 06:38:53;;;;;;;20.73;5.55;;;16.60;99.90;;;;;;5064384;28;37368;-78
2022/05/14 06:41:19;;;;;;;18.45;5.20;;;16.80;99.90;;;;;;5069009;28;38575;-78
2022/05/14 06:43:45;;;;;;;15.27;4.63;;;17.00;99.90;;;;;;5069343;27;39278;-79
2022/05/14 06:46:12;;;;;;;15.50;5.13;;;17.30;99.90;;;;;;5070679;28;37090;-77
2022/05/14 06:48:38;;;;;;;22.08;5.35;;;17.40;99.90;;;;;;5075949;28;39598;-79
2022/05/14 06:51:08;;;;;;;13.55;4.97;;;17.40;99.90;;;;;;5072642;28;38806;-78
2022/05/14 06:53:38;;;;;;;15.52;5.10;;;17.40;99.90;;;;;;5076028;28;37892;-78
2022/05/14 06:56:06;;;;;;;21.42;5.32;;;17.60;99.90;;;;;;5072551;28;38387;-78
2022/05/14 06:58:36;;;;;;;14.02;5.03;;;17.70;99.90;;;;;;5064341;28;37227;-79
2022/05/14 07:01:03;;;;;;;17.92;6.22;;;17.70;99.90;;;;;;5078827;28;39006;-79
2022/05/14 07:09:02;;;;;;;19.52;5.32;;;17.80;99.90;;;;;;5094714;27;38019;-80
2022/05/14 07:11:28;;;;;;;18.17;5.18;;;18.00;99.90;;;;;;5067701;28;46965;-80
2022/05/14 07:13:57;;;;;;;19.63;5.05;;;18.20;99.90;;;;;;5051576;28;38216;-78
2022/05/14 07:16:24;;;;;;;21.73;5.32;;;18.50;99.90;;;;;;5051783;28;39056;-78
2022/05/14 07:18:50;;;;;;;20.40;5.70;;;18.50;99.90;;;;;;5055826;27;36183;-78
2022/05/14 07:21:16;;;;;;;16.50;5.10;;;18.40;99.90;;;;;;5060577;28;38363;-78
2022/05/14 07:23:42;;;;;;;14.90;6.13;;;18.50;99.90;;;;;;5056895;27;38459;-78
2022/05/14 07:26:08;;;;;;;14.80;5.30;;;18.60;99.90;;;;;;5058379;28;38994;-78
2022/05/14 07:28:35;;;;;;;17.45;5.20;;;18.80;99.90;;;;;;5072285;27;37976;-79
2022/05/14 07:31:03;;;;;;;11.43;4.85;;;19.10;99.90;;;;;;5059420;28;39861;-76
2022/05/14 07:33:30;;;;;;;18.70;5.20;;;19.50;99.90;;;;;;5086674;27;39986;-79
2022/05/14 07:36:01;;;;;;;16.30;6.07;;;19.60;99.90;;;;;;5069294;28;38226;-79
2022/05/14 07:38:29;;;;;;;20.35;5.72;;;19.50;99.90;;;;;;5099834;27;46839;-80
2022/05/14 07:40:55;;;;;;;16.92;5.55;;;19.50;99.90;;;;;;5056547;28;38924;-80
2022/05/14 07:43:30;;;;;;;21.63;5.55;;;19.40;99.90;;;;;;5051960;28;38722;-80
2022/05/14 07:46:02;;;;;;;17.90;5.68;;;19.70;99.90;;;;;;5057100;28;38113;-80
2022/05/14 07:48:33;;;;;;;14.40;4.90;;;20.00;99.90;;;;;;5065861;27;49017;-80
2022/05/14 07:51:02;;;;;;;18.10;5.75;;;19.80;99.90;;;;;;5068495;27;39087;-81
2022/05/14 07:53:30;;;;;;;17.83;5.40;;;19.90;99.90;;;;;;5071924;27;48788;-81
2022/05/14 07:55:57;;;;;;;18.92;6.25;;;20.20;99.90;;;;;;5057716;28;38255;-81
2022/05/14 07:58:26;;;;;;;18.60;5.45;;;19.90;99.90;;;;;;5059706;27;38359;-82
2022/05/14 08:00:53;;;;;;;17.00;5.53;;;20.10;99.90;;;;;;5072436;28;40705;-81
2022/05/14 08:03:23;;;;;;;18.05;5.03;;;20.20;99.90;;;;;;5089932;28;38766;-81
2022/05/14 08:05:58;;;;;;;16.00;5.72;;;20.20;99.90;;;;;;5060042;28;37846;-80
2022/05/14 08:08:25;;;;;;;15.20;5.78;;;20.40;99.90;;;;;;5039163;28;38184;-80
2022/05/14 08:10:52;;;;;;;14.43;4.80;;;20.50;99.90;;;;;;5059429;28;39079;-79
2022/05/14 08:13:21;;;;;;;18.15;5.20;;;20.20;99.90;;;;;;5059832;27;39187;-80
2022/05/14 08:15:49;;;;;;;15.30;5.38;;;20.70;99.90;;;;;;5048323;28;38782;-79
2022/05/14 08:18:16;;;;;;;14.35;4.72;;;20.50;99.90;;;;;;5053689;28;37459;-80
2022/05/14 08:20:44;;;;;;;14.65;4.60;;;20.70;99.90;;;;;;5057786;28;38043;-78
2022/05/14 08:25:59;;;;;;;16.80;4.65;;;21.20;99.90;;;;;;5057036;28;39317;-80
2022/05/14 08:28:27;;;;;;;11.52;4.70;;;21.50;99.90;;;;;;5057137;28;38048;-80
2022/05/14 08:30:54;;;;;;;14.05;5.18;;;21.80;99.90;;;;;;5057621;28;39249;-79
2022/05/14 08:33:21;;;;;;;15.48;4.85;;;21.90;99.90;;;;;;5051173;28;39232;-80
2022/05/14 08:35:48;;;;;;;14.63;4.97;;;21.90;99.90;;;;;;5063541;28;39046;-84
2022/05/14 08:38:15;;;;;;;18.35;5.47;;;22.10;99.90;;;;;;5071627;28;37992;-85
2022/05/14 08:40:58;;;;;;;14.07;4.38;;;22.20;99.90;;;;;;5066971;28;38539;-84
2022/05/14 08:43:39;;;;;;;13.43;4.25;;;22.30;99.90;;;;;;5066899;28;39501;-85
2022/05/14 08:46:11;;;;;;;14.68;4.60;;;22.30;99.90;;;;;;5055008;28;38072;-85
2022/05/14 08:48:39;;;;;;;16.00;4.40;;;21.90;99.90;;;;;;5056967;27;37078;-86
2022/05/14 08:51:14;;;;;;;11.20;3.70;;;22.00;99.90;;;;;;5069345;27;38857;-85
2022/05/14 08:53:42;;;;;;;16.60;5.25;;;22.10;99.90;;;;;;5096498;27;38702;-87
2022/05/14 08:56:44;;;;;;;12.82;3.50;;;22.10;99.90;;;;;;5066256;28;37118;-87
2022/05/14 08:59:37;;;;;;;10.93;3.85;;;21.90;99.90;;;;;;5064385;28;37653;-86
2022/05/14 09:02:36;;;;;;;9.82;3.22;;;22.80;99.90;;;;;;5095648;27;39149;-86
2022/05/14 09:05:13;;;;;;;22.83;4.65;;;23.20;99.90;;;;;;5056509;27;39463;-85
2022/05/14 09:07:39;;;;;;;13.10;3.22;;;22.70;99.90;;;;;;5067712;28;38569;-86
2022/05/14 09:10:18;;;;;;;11.60;3.60;;;23.00;99.90;;;;;;5054825;27;38126;-86
2022/05/14 09:12:54;;;;;;;13.95;3.85;;;22.70;99.90;;;;;;5060380;28;40519;-84
2022/05/14 09:15:21;;;;;;;11.55;3.22;;;22.80;99.90;;;;;;5065419;27;39450;-84
2022/05/14 09:18:01;;;;;;;13.82;3.08;;;22.60;99.90;;;;;;5061040;28;38589;-85
2022/05/14 09:20:27;;;;;;;16.50;3.60;;;23.00;99.90;;;;;;5064498;28;38502;-85
2022/05/14 09:22:56;;;;;;;14.35;4.45;;;22.50;99.90;;;;;;5050550;28;38403;-85
2022/05/14 09:25:27;;;;;;;12.25;3.47;;;21.70;99.90;;;;;;5086029;27;38760;-86
2022/05/14 09:28:10;;;;;;;13.57;3.33;;;22.40;99.90;;;;;;5085360;27;40825;-84
2022/05/14 09:30:39;;;;;;;11.07;3.35;;;22.30;99.90;;;;;;5108660;27;47672;-85
2022/05/14 09:33:09;;;;;;;11.82;3.78;;;23.20;99.90;;;;;;5094547;27;37912;-87
2022/05/14 09:35:37;;;;;;;11.65;3.50;;;23.90;99.90;;;;;;5058959;28;39017;-84
2022/05/14 09:38:09;;;;;;;13.20;3.42;;;23.40;99.90;;;;;;5072174;28;38664;-84
2022/05/14 09:40:37;;;;;;;12.75;4.68;;;22.40;99.90;;;;;;5074781;28;37688;-84
2022/05/14 09:43:14;;;;;;;12.50;3.45;;;21.70;99.90;;;;;;5085726;27;39065;-83
2022/05/14 09:45:43;;;;;;;11.68;3.13;;;22.10;99.90;;;;;;5067689;28;39264;-84
2022/05/14 09:48:19;;;;;;;16.30;4.40;;;23.00;99.90;;;;;;5075494;28;38070;-84
2022/05/14 09:50:51;;;;;;;15.63;4.18;;;23.20;99.90;;;;;;5077299;28;36516;-81
2022/05/14 09:53:30;;;;;;;;;;;22.80;99.90;;;;;;5079046;28;39030;-82
2022/05/14 09:56:27;;;;;;;10.38;3.22;;;22.50;99.90;;;;;;5086644;28;40695;-79
2022/05/14 09:59:10;;;;;;;11.55;3.58;;;22.30;99.90;;;;;;5074531;28;47223;-80
2022/05/14 10:01:48;;;;;;;12.40;3.38;;;22.20;99.90;;;;;;5064649;28;49834;-79
2022/05/14 10:04:44;;;;;;;9.95;3.10;;;22.50;99.90;;;;;;5070671;28;38918;-78
2022/05/14 10:07:20;;;;;;;9.60;2.90;;;22.80;99.90;;;;;;5070026;28;39217;-78
2022/05/14 10:10:06;;;;;;;11.43;3.30;;;23.10;99.90;;;;;;5082336;27;38885;-80
2022/05/14 10:12:38;;;;;;;15.60;3.70;;;23.90;99.90;;;;;;5068729;28;47944;-79
2022/05/14 10:15:25;;;;;;;8.82;3.45;;;24.30;99.90;;;;;;5069238;27;38678;-80
2022/05/14 10:18:29;;;;;;;13.57;3.60;;;23.90;99.90;;;;;;5065808;28;39809;-82
2022/05/14 10:21:00;;;;;;;9.05;3.13;;;24.00;99.90;;;;;;5061614;28;47222;-79
2022/05/14 10:26:46;;;;;;;12.27;4.00;;;24.50;99.90;;;;;;5078602;28;41108;-82
2022/05/14 10:29:33;;;;;;;12.57;3.30;;;23.40;99.90;;;;;;5076909;28;40708;-81
2022/05/14 10:32:04;;;;;;;10.50;3.47;;;22.60;99.90;;;;;;5071582;28;38080;-80
2022/05/14 10:34:40;;;;;;;11.35;3.30;;;22.00;99.90;;;;;;5071328;28;49275;-82
2022/05/14 10:37:32;;;;;;;10.02;3.13;;;22.70;99.90;;;;;;5068398;28;38402;-80
2022/05/14 10:40:13;;;;;;;16.77;3.70;;;23.50;99.90;;;;;;5064547;28;38968;-80
2022/05/14 10:42:59;;;;;;;11.80;3.73;;;23.30;99.90;;;;;;5062499;28;46983;-80
2022/05/14 10:45:34;;;;;;;11.55;3.60;;;23.20;99.90;;;;;;5072261;28;38349;-80
2022/05/14 10:48:04;;;;;;;11.30;3.40;;;23.60;99.90;;;;;;5085405;27;39692;-80
2022/05/14 10:50:31;;;;;;;11.25;3.90;;;23.40;99.90;;;;;;5076954;28;48334;-80
2022/05/14 10:52:58;;;;;;;18.45;3.97;;;23.40;99.90;;;;;;5074103;28;39725;-81
2022/05/14 10:55:45;;;;;;;13.75;3.78;;;23.90;99.90;;;;;;5076725;28;38026;-80
2022/05/14 10:58:21;;;;;;;12.27;3.17;;;24.00;99.90;;;;;;5076572;28;39884;-84
2022/05/14 11:00:47;;;;;;;12.90;3.35;;;24.40;99.90;;;;;;5074822;28;39240;-82
2022/05/14 11:03:25;;;;;;;11.90;2.85;;;23.80;99.90;;;;;;5066045;27;37280;-81
2022/05/14 11:06:15;;;;;;;7.72;2.70;;;24.30;99.90;;;;;;5076376;28;37624;-83
2022/05/14 11:08:44;;;;;;;12.13;3.58;;;24.00;99.90;;;;;;5064106;28;47692;-84
2022/05/14 11:11:16;;;;;;;11.63;3.47;;;23.60;99.90;;;;;;5072099;28;38452;-83
2022/05/14 11:14:05;;;;;;;12.52;3.45;;;23.30;99.90;;;;;;5079301;28;38102;-83
2022/05/14 11:16:40;;;;;;;15.88;4.00;;;22.90;99.90;;;;;;5074365;27;48537;-83
2022/05/14 11:19:07;;;;;;;12.73;3.15;;;23.60;99.90;;;;;;5077207;28;39133;-84
2022/05/14 11:21:40;;;;;;;11.57;3.58;;;24.10;99.90;;;;;;5077528;28;37496;-83
2022/05/14 11:24:12;;;;;;;14.88;3.63;;;23.60;99.90;;;;;;5075646;28;38783;-83
2022/05/14 11:26:51;;;;;;;14.38;3.80;;;22.60;99.90;;;;;;5078129;28;39464;-83
2022/05/14 11:29:24;;;;;;;14.02;4.13;;;22.60;99.90;;;;;;5067291;28;40719;-82
2022/05/14 11:32:08;;;;;;;11.60;3.92;;;23.00;99.90;;;;;;5073009;28;39204;-82
2022/05/14 11:34:35;;;;;;;14.82;3.75;;;23.60;99.90;;;;;;5077443;28;47136;-81
2022/05/14 11:37:05;;;;;;;16.35;4.07;;;23.70;99.90;;;;;;5073412;28;37820;-82
2022/05/14 11:39:37;;;;;;;12.07;3.47;;;24.10;99.90;;;;;;5077520;28;48322;-82
2022/05/14 11:42:28;;;;;;;10.25;3.33;;;24.20;99.90;;;;;;5076500;27;39872;-81
2022/05/14 11:45:19;;;;;;;12.15;4.18;;;24.10;99.90;;;;;;5067696;28;39448;-80
2022/05/14 11:48:04;;;;;;;9.57;3.38;;;24.00;99.90;;;;;;5088957;27;47742;-80
2022/05/14 11:50:42;;;;;;;9.68;3.13;;;23.40;99.90;;;;;;5078201;27;48344;-81
2022/05/14 11:53:21;;;;;;;10.57;3.33;;;23.80;99.90;;;;;;5066055;28;38416;-78
2022/05/14 11:55:54;;;;;;;9.82;2.97;;;24.20;99.90;;;;;;5078977;28;37358;-82
2022/05/14 11:58:31;;;;;;;11.35;3.25;;;24.40;99.90;;;;;;5079801;27;37651;-79
2022/05/14 12:01:04;;;;;;;8.80;2.83;;;24.10;99.90;;;;;;5074153;27;39803;-80
2022/05/14 12:03:40;;;;;;;12.75;4.10;;;24.50;99.90;;;;;;5078964;27;48897;-79
2022/05/14 12:06:38;;;;;;;7.47;3.20;;;24.60;99.90;;;;;;5069184;27;37247;-80
2022/05/14 12:09:39;;;;;;;12.75;3.25;;;24.70;99.90;;;;;;5057316;28;37345;-81
2022/05/14 12:12:28;;;;;;;9.63;3.13;;;24.50;99.90;;;;;;5048489;28;38051;-79
2022/05/14 12:14:55;;;;;;;13.88;3.63;;;24.70;99.90;;;;;;5075413;28;38993;-80
2022/05/14 12:17:21;;;;;;;10.63;3.63;;;24.50;99.90;;;;;;5056024;28;38385;-80
2022/05/14 12:19:57;;;;;;;12.90;3.60;;;24.00;99.90;;;;;;5056433;28;37675;-79
2022/05/14 12:22:29;;;;;;;11.80;3.67;;;23.30;99.90;;;;;;5065603;28;38541;-80
2022/05/14 12:25:08;;;;;;;9.90;3.65;;;22.90;99.90;;;;;;5072626;28;37047;-79
2022/05/14 12:27:44;;;;;;;9.05;3.40;;;23.10;99.90;;;;;;5077909;27;46223;-79
2022/05/14 12:30:13;;;;;;;14.48;3.45;;;23.90;99.90;;;;;;5078541;27;36665;-80
2022/05/14 12:35:34;;;;;;;10.57;3.17;;;24.80;99.90;;;;;;5067632;27;49378;-81
2022/05/14 12:38:03;;;;;;;13.63;3.72;;;24.30;99.90;;;;;;5071741;28;37613;-80
2022/05/14 12:40:33;;;;;;;14.68;3.72;;;23.60;99.90;;;;;;5088049;28;47461;-81
2022/05/14 12:42:59;;;;;;;10.48;3.17;;;23.50;99.90;;;;;;5075643;28;39701;-80
2022/05/14 12:45:50;;;;;;;11.40;3.35;;;23.80;99.90;;;;;;5085966;27;38415;-80
2022/05/14 12:48:16;;;;;;;13.43;3.97;;;24.10;99.90;;;;;;5103594;27;40092;-80
2022/05/14 12:50:54;;;;;;;12.48;3.28;;;24.20;99.90;;;;;;5076148;28;37513;-81
2022/05/14 12:53:33;;;;;;;12.80;3.78;;;24.70;99.90;;;;;;5062480;27;39590;-82
2022/05/14 12:55:59;;;;;;;16.98;4.55;;;24.90;99.90;;;;;;5047091;28;39311;-80
2022/05/14 12:58:26;;;;;;;11.75;3.83;;;24.70;99.90;;;;;;5041805;28;38456;-81
2022/05/14 13:00:52;;;;;;;14.65;4.07;;;24.20;99.90;;;;;;5047161;28;37001;-82
2022/05/14 13:03:34;;;;;;;11.18;3.53;;;24.10;99.90;;;;;;5050271;28;39736;-82
2022/05/14 13:06:05;;;;;;;14.90;3.22;;;23.70;99.90;;;;;;5055773;28;40148;-82
2022/05/14 13:08:32;;;;;;;11.90;4.40;;;23.80;99.90;;;;;;5050463;28;49218;-83
2022/05/14 13:11:10;;;;;;;10.63;3.33;;;24.20;99.90;;;;;;5075219;28;37856;-83
2022/05/14 13:13:38;;;;;;;10.95;3.70;;;24.40;99.90;;;;;;5082514;27;45575;-82
2022/05/14 13:16:19;;;;;;;13.80;3.38;;;23.90;99.90;;;;;;5074582;28;39375;-82